sensor_id;sensor_type;location;lat;lon;timestamp;pressure;altitude;pressure_sealevel;temperature;humidity
82293;BME280;71892;14.836;105.234;2024-03-22T00:02:09;99444.31;;;26.46;nan
82293;BME280;71892;14.836;105.234;2024-03-22T00:04:37;99426.03;;;26.63;nan
82293;BME280;71892;14.836;105.234;2024-03-22T00:07:03;99441.75;;;26.91;nan
82293;BME280;71892;14.836;105.234;2024-03-22T00:09:30;99447.72;;;27.29;nan
82293;BME280;71892;14.836;105.234;2024-03-22T00:11:57;99425.25;;;27.70;nan
82293;BME280;71892;14.836;105.234;2024-03-22T00:14:24;99441.94;;;28.09;nan
82293;BME280;71892;14.836;105.234;2024-03-22T00:16:50;99439.84;;;28.57;nan
82293;BME280;71892;14.836;105.234;2024-03-22T00:19:17;99447.19;;;28.99;nan
82293;BME280;71892;14.836;105.234;2024-03-22T00:21:43;99440.16;;;29.35;nan
82293;BME280;71892;14.836;105.234;2024-03-22T00:24:10;99447.94;;;29.68;nan
82293;BME280;71892;14.836;105.234;2024-03-22T00:26:36;99370.59;;;30.03;nan
82293;BME280;71892;14.836;105.234;2024-03-22T00:29:03;99435.22;;;30.32;nan
82293;BME280;71892;14.836;105.234;2024-03-22T00:31:29;99433.25;;;30.72;nan
82293;BME280;71892;14.836;105.234;2024-03-22T00:33:56;99439.66;;;31.09;nan
82293;BME280;71892;14.836;105.234;2024-03-22T00:36:23;99439.16;;;31.28;nan
82293;BME280;71892;14.836;105.234;2024-03-22T00:38:49;99446.09;;;31.57;nan
82293;BME280;71892;14.836;105.234;2024-03-22T00:41:16;99445.06;;;31.82;nan
82293;BME280;71892;14.836;105.234;2024-03-22T00:43:43;99448.66;;;31.71;nan
82293;BME280;71892;14.836;105.234;2024-03-22T00:46:13;99458.81;;;31.71;nan
82293;BME280;71892;14.836;105.234;2024-03-22T00:48:39;99458.81;;;31.71;nan
82293;BME280;71892;14.836;105.234;2024-03-22T00:51:06;99464.50;;;31.68;nan
82293;BME280;71892;14.836;105.234;2024-03-22T00:53:33;99466.91;;;31.72;nan
82293;BME280;71892;14.836;105.234;2024-03-22T00:55:59;99470.50;;;31.85;nan
82293;BME280;71892;14.836;105.234;2024-03-22T00:58:29;99479.00;;;31.93;nan
82293;BME280;71892;14.836;105.234;2024-03-22T01:00:56;99420.88;;;31.98;nan
82293;BME280;71892;14.836;105.234;2024-03-22T01:03:22;99498.19;;;32.06;nan
82293;BME280;71892;14.836;105.234;2024-03-22T01:05:49;99491.06;;;32.39;nan
82293;BME280;71892;14.836;105.234;2024-03-22T01:08:16;99495.78;;;32.71;nan
82293;BME280;71892;14.836;105.234;2024-03-22T01:10:42;99504.16;;;33.14;nan
82293;BME280;71892;14.836;105.234;2024-03-22T01:13:09;99493.72;;;33.51;nan
82293;BME280;71892;14.836;105.234;2024-03-22T01:15:35;99512.16;;;33.94;nan
82293;BME280;71892;14.836;105.234;2024-03-22T01:18:02;99513.03;;;33.94;nan
82293;BME280;71892;14.836;105.234;2024-03-22T01:20:29;99513.81;;;33.85;nan
82293;BME280;71892;14.836;105.234;2024-03-22T01:22:59;99511.53;;;34.01;nan
82293;BME280;71892;14.836;105.234;2024-03-22T01:25:27;99520.34;;;34.27;nan
82293;BME280;71892;14.836;105.234;2024-03-22T01:27:56;99513.53;;;34.52;nan
82293;BME280;71892;14.836;105.234;2024-03-22T01:30:22;99521.72;;;34.74;nan
82293;BME280;71892;14.836;105.234;2024-03-22T01:32:49;99513.25;;;34.34;nan
82293;BME280;71892;14.836;105.234;2024-03-22T01:35:15;99521.81;;;34.94;nan
82293;BME280;71892;14.836;105.234;2024-03-22T01:37:42;99513.97;;;34.99;nan
82293;BME280;71892;14.836;105.234;2024-03-22T01:40:09;99520.53;;;34.98;nan
82293;BME280;71892;14.836;105.234;2024-03-22T01:42:35;99522.56;;;35.26;nan
82293;BME280;71892;14.836;105.234;2024-03-22T01:45:02;99526.78;;;35.30;nan
82293;BME280;71892;14.836;105.234;2024-03-22T01:47:29;99522.22;;;35.59;nan
82293;BME280;71892;14.836;105.234;2024-03-22T01:49:56;99522.81;;;35.53;nan
82293;BME280;71892;14.836;105.234;2024-03-22T01:52:23;99518.19;;;35.23;nan
82293;BME280;71892;14.836;105.234;2024-03-22T01:54:50;99512.44;;;35.46;nan
82293;BME280;71892;14.836;105.234;2024-03-22T01:59:43;99526.09;;;35.68;nan
82293;BME280;71892;14.836;105.234;2024-03-22T02:02:10;99509.75;;;35.74;nan
82293;BME280;71892;14.836;105.234;2024-03-22T02:04:37;99512.81;;;35.71;nan
82293;BME280;71892;14.836;105.234;2024-03-22T02:07:03;99508.47;;;36.07;nan
82293;BME280;71892;14.836;105.234;2024-03-22T02:09:30;99500.91;;;35.81;nan
82293;BME280;71892;14.836;105.234;2024-03-22T02:11:57;99512.28;;;35.97;nan
82293;BME280;71892;14.836;105.234;2024-03-22T02:14:23;99506.44;;;35.81;nan
82293;BME280;71892;14.836;105.234;2024-03-22T02:16:51;99512.28;;;35.97;nan
82293;BME280;71892;14.836;105.234;2024-03-22T02:19:17;99515.91;;;35.97;nan
82293;BME280;71892;14.836;105.234;2024-03-22T02:21:44;99505.03;;;36.15;nan
82293;BME280;71892;14.836;105.234;2024-03-22T02:24:10;99509.66;;;36.05;nan
82293;BME280;71892;14.836;105.234;2024-03-22T02:26:37;99510.25;;;36.28;nan
82293;BME280;71892;14.836;105.234;2024-03-22T02:29:03;99506.47;;;36.38;nan
82293;BME280;71892;14.836;105.234;2024-03-22T02:31:30;99496.25;;;36.48;nan
82293;BME280;71892;14.836;105.234;2024-03-22T02:33:58;99497.81;;;36.70;nan
82293;BME280;71892;14.836;105.234;2024-03-22T02:38:53;99502.38;;;36.42;nan
82293;BME280;71892;14.836;105.234;2024-03-22T02:41:21;99501.34;;;36.63;nan
82293;BME280;71892;14.836;105.234;2024-03-22T02:43:47;99500.47;;;36.33;nan
82293;BME280;71892;14.836;105.234;2024-03-22T02:46:14;99500.59;;;36.61;nan
82293;BME280;71892;14.836;105.234;2024-03-22T02:48:40;99501.28;;;36.82;nan
82293;BME280;71892;14.836;105.234;2024-03-22T02:51:07;99494.13;;;36.89;nan
82293;BME280;71892;14.836;105.234;2024-03-22T02:53:33;99493.00;;;36.72;nan
82293;BME280;71892;14.836;105.234;2024-03-22T02:56:00;99499.53;;;36.81;nan
82293;BME280;71892;14.836;105.234;2024-03-22T02:58:27;99500.72;;;36.78;nan
82293;BME280;71892;14.836;105.234;2024-03-22T03:00:53;99496.78;;;36.71;nan
82293;BME280;71892;14.836;105.234;2024-03-22T03:03:20;99493.50;;;36.95;nan
82293;BME280;71892;14.836;105.234;2024-03-22T03:05:46;99484.31;;;36.94;nan
82293;BME280;71892;14.836;105.234;2024-03-22T03:08:13;99485.59;;;37.10;nan
82293;BME280;71892;14.836;105.234;2024-03-22T03:10:39;99480.13;;;37.27;nan
82293;BME280;71892;14.836;105.234;2024-03-22T03:13:05;99477.06;;;37.48;nan
82293;BME280;71892;14.836;105.234;2024-03-22T03:15:32;99478.66;;;37.51;nan
82293;BME280;71892;14.836;105.234;2024-03-22T03:18:01;99470.00;;;37.36;nan
82293;BME280;71892;14.836;105.234;2024-03-22T03:20:27;99464.59;;;36.61;nan
82293;BME280;71892;14.836;105.234;2024-03-22T03:22:54;99477.03;;;37.30;nan
82293;BME280;71892;14.836;105.234;2024-03-22T03:25:21;99469.84;;;37.37;nan
82293;BME280;71892;14.836;105.234;2024-03-22T03:27:47;99466.59;;;37.42;nan
82293;BME280;71892;14.836;105.234;2024-03-22T03:30:14;99485.06;;;37.61;nan
82293;BME280;71892;14.836;105.234;2024-03-22T03:32:40;99465.16;;;37.65;nan
82293;BME280;71892;14.836;105.234;2024-03-22T03:35:07;99475.31;;;37.57;nan
82293;BME280;71892;14.836;105.234;2024-03-22T03:37:33;99475.25;;;37.84;nan
82293;BME280;71892;14.836;105.234;2024-03-22T03:40:00;99471.03;;;37.98;nan
82293;BME280;71892;14.836;105.234;2024-03-22T03:42:27;99465.72;;;37.86;nan
82293;BME280;71892;14.836;105.234;2024-03-22T03:44:53;99454.53;;;37.78;nan
82293;BME280;71892;14.836;105.234;2024-03-22T03:47:19;99454.78;;;37.85;nan
82293;BME280;71892;14.836;105.234;2024-03-22T03:49:46;99443.59;;;37.77;nan
82293;BME280;71892;14.836;105.234;2024-03-22T03:52:13;99446.00;;;37.44;nan
82293;BME280;71892;14.836;105.234;2024-03-22T03:54:40;99436.72;;;37.81;nan
82293;BME280;71892;14.836;105.234;2024-03-22T03:57:09;99437.16;;;37.76;nan
82293;BME280;71892;14.836;105.234;2024-03-22T03:59:36;99428.75;;;37.86;nan
82293;BME280;71892;14.836;105.234;2024-03-22T04:02:02;99428.84;;;37.59;nan
82293;BME280;71892;14.836;105.234;2024-03-22T04:04:29;99432.09;;;37.72;nan
82293;BME280;71892;14.836;105.234;2024-03-22T04:06:55;99420.66;;;37.12;nan
82293;BME280;71892;14.836;105.234;2024-03-22T04:09:21;99416.28;;;37.37;nan
82293;BME280;71892;14.836;105.234;2024-03-22T04:11:48;99417.34;;;37.89;nan
82293;BME280;71892;14.836;105.234;2024-03-22T04:14:14;99410.88;;;37.35;nan
82293;BME280;71892;14.836;105.234;2024-03-22T04:16:41;99406.34;;;37.34;nan
82293;BME280;71892;14.836;105.234;2024-03-22T04:19:07;99397.81;;;37.46;nan
82293;BME280;71892;14.836;105.234;2024-03-22T04:21:34;99409.88;;;37.72;nan
82293;BME280;71892;14.836;105.234;2024-03-22T04:24:00;99407.25;;;37.88;nan
82293;BME280;71892;14.836;105.234;2024-03-22T04:26:27;99404.47;;;38.06;nan
82293;BME280;71892;14.836;105.234;2024-03-22T04:28:54;99388.97;;;37.05;nan
82293;BME280;71892;14.836;105.234;2024-03-22T04:31:20;99377.50;;;36.73;nan
82293;BME280;71892;14.836;105.234;2024-03-22T04:33:47;99376.03;;;35.36;nan
82293;BME280;71892;14.836;105.234;2024-03-22T04:36:14;99371.09;;;35.49;nan
82293;BME280;71892;14.836;105.234;2024-03-22T04:41:07;99360.06;;;37.35;nan
82293;BME280;71892;14.836;105.234;2024-03-22T04:43:34;99363.16;;;38.03;nan
82293;BME280;71892;14.836;105.234;2024-03-22T04:46:00;99357.75;;;38.45;nan
82293;BME280;71892;14.836;105.234;2024-03-22T04:48:27;99349.88;;;38.66;nan
82293;BME280;71892;14.836;105.234;2024-03-22T04:50:53;99342.00;;;38.87;nan
82293;BME280;71892;14.836;105.234;2024-03-22T04:53:20;99334.56;;;38.96;nan
82293;BME280;71892;14.836;105.234;2024-03-22T04:55:47;99330.34;;;39.34;nan
82293;BME280;71892;14.836;105.234;2024-03-22T04:58:21;99275.81;;;37.36;nan
82293;BME280;71892;14.836;105.234;2024-03-22T05:00:49;99319.31;;;36.90;nan
82293;BME280;71892;14.836;105.234;2024-03-22T05:03:16;99322.59;;;37.13;nan
82293;BME280;71892;14.836;105.234;2024-03-22T05:05:43;99316.16;;;36.21;nan
82293;BME280;71892;14.836;105.234;2024-03-22T05:08:09;99309.22;;;35.59;nan
82293;BME280;71892;14.836;105.234;2024-03-22T05:10:36;99302.25;;;35.55;nan
82293;BME280;71892;14.836;105.234;2024-03-22T05:13:03;99289.63;;;36.09;nan
82293;BME280;71892;14.836;105.234;2024-03-22T05:15:30;99285.56;;;36.13;nan
82293;BME280;71892;14.836;105.234;2024-03-22T05:17:57;99286.50;;;36.68;nan
82293;BME280;71892;14.836;105.234;2024-03-22T05:20:24;99279.66;;;36.35;nan
82293;BME280;71892;14.836;105.234;2024-03-22T05:22:51;99266.09;;;35.95;nan
82293;BME280;71892;14.836;105.234;2024-03-22T05:25:19;99262.63;;;35.74;nan
82293;BME280;71892;14.836;105.234;2024-03-22T05:27:46;99257.81;;;35.86;nan
82293;BME280;71892;14.836;105.234;2024-03-22T05:30:13;99250.66;;;36.84;nan
82293;BME280;71892;14.836;105.234;2024-03-22T05:32:40;99242.22;;;37.82;nan
82293;BME280;71892;14.836;105.234;2024-03-22T05:35:07;99233.78;;;38.52;nan
82293;BME280;71892;14.836;105.234;2024-03-22T05:37:34;99229.69;;;38.80;nan
82293;BME280;71892;14.836;105.234;2024-03-22T05:40:01;99234.81;;;37.48;nan
82293;BME280;71892;14.836;105.234;2024-03-22T05:42:28;99209.72;;;36.78;nan
82293;BME280;71892;14.836;105.234;2024-03-22T05:44:55;99204.66;;;37.09;nan
82293;BME280;71892;14.836;105.234;2024-03-22T05:47:22;99194.75;;;37.68;nan
82293;BME280;71892;14.836;105.234;2024-03-22T05:49:48;99193.38;;;38.32;nan
82293;BME280;71892;14.836;105.234;2024-03-22T05:52:15;99192.97;;;38.52;nan
82293;BME280;71892;14.836;105.234;2024-03-22T05:54:41;99184.81;;;38.51;nan
82293;BME280;71892;14.836;105.234;2024-03-22T05:57:08;99176.19;;;37.94;nan
82293;BME280;71892;14.836;105.234;2024-03-22T05:59:35;99170.13;;;37.65;nan
82293;BME280;71892;14.836;105.234;2024-03-22T06:02:02;99172.13;;;37.11;nan
82293;BME280;71892;14.836;105.234;2024-03-22T06:04:31;99159.56;;;37.25;nan
82293;BME280;71892;14.836;105.234;2024-03-22T06:06:57;99149.19;;;37.53;nan
82293;BME280;71892;14.836;105.234;2024-03-22T06:09:28;99153.34;;;37.74;nan
82293;BME280;71892;14.836;105.234;2024-03-22T06:12:06;99139.59;;;38.41;nan
82293;BME280;71892;14.836;105.234;2024-03-22T06:14:33;99144.88;;;38.60;nan
82293;BME280;71892;14.836;105.234;2024-03-22T06:16:59;99125.34;;;38.36;nan
82293;BME280;71892;14.836;105.234;2024-03-22T06:19:26;99119.78;;;38.36;nan
82293;BME280;71892;14.836;105.234;2024-03-22T06:21:52;99117.00;;;38.36;nan
82293;BME280;71892;14.836;105.234;2024-03-22T06:24:19;99114.41;;;38.34;nan
82293;BME280;71892;14.836;105.234;2024-03-22T06:26:45;99096.53;;;38.28;nan
82293;BME280;71892;14.836;105.234;2024-03-22T06:29:12;99098.16;;;38.47;nan
82293;BME280;71892;14.836;105.234;2024-03-22T06:31:39;99073.31;;;38.70;nan
82293;BME280;71892;14.836;105.234;2024-03-22T06:34:06;99084.63;;;38.93;nan
82293;BME280;71892;14.836;105.234;2024-03-22T06:36:32;99077.88;;;39.11;nan
82293;BME280;71892;14.836;105.234;2024-03-22T06:38:59;99079.91;;;38.45;nan
82293;BME280;71892;14.836;105.234;2024-03-22T06:41:27;99063.81;;;38.06;nan
82293;BME280;71892;14.836;105.234;2024-03-22T06:43:54;99062.81;;;37.81;nan
82293;BME280;71892;14.836;105.234;2024-03-22T06:46:20;99074.53;;;37.59;nan
82293;BME280;71892;14.836;105.234;2024-03-22T06:48:47;99059.50;;;37.70;nan
82293;BME280;71892;14.836;105.234;2024-03-22T06:51:13;99067.34;;;37.82;nan
82293;BME280;71892;14.836;105.234;2024-03-22T06:53:39;99045.75;;;38.02;nan
82293;BME280;71892;14.836;105.234;2024-03-22T06:56:06;99048.53;;;38.10;nan
82293;BME280;71892;14.836;105.234;2024-03-22T06:58:36;99011.75;;;38.00;nan
82293;BME280;71892;14.836;105.234;2024-03-22T07:01:03;99035.88;;;38.08;nan
82293;BME280;71892;14.836;105.234;2024-03-22T07:03:30;99035.81;;;38.58;nan
82293;BME280;71892;14.836;105.234;2024-03-22T07:05:56;99036.50;;;38.68;nan
82293;BME280;71892;14.836;105.234;2024-03-22T07:08:26;99024.00;;;38.72;nan
82293;BME280;71892;14.836;105.234;2024-03-22T07:10:54;99024.16;;;38.87;nan
82293;BME280;71892;14.836;105.234;2024-03-22T07:13:21;99014.97;;;38.62;nan
82293;BME280;71892;14.836;105.234;2024-03-22T07:15:47;99020.47;;;38.38;nan
82293;BME280;71892;14.836;105.234;2024-03-22T07:18:15;99002.81;;;38.47;nan
82293;BME280;71892;14.836;105.234;2024-03-22T07:20:42;99002.75;;;38.31;nan
82293;BME280;71892;14.836;105.234;2024-03-22T07:23:09;98990.41;;;38.25;nan
82293;BME280;71892;14.836;105.234;2024-03-22T07:25:38;98987.16;;;38.46;nan
82293;BME280;71892;14.836;105.234;2024-03-22T07:28:05;98978.50;;;38.57;nan
82293;BME280;71892;14.836;105.234;2024-03-22T07:30:31;98974.13;;;38.87;nan
82293;BME280;71892;14.836;105.234;2024-03-22T07:32:58;98975.34;;;38.92;nan
82293;BME280;71892;14.836;105.234;2024-03-22T07:35:24;98975.19;;;38.45;nan
82293;BME280;71892;14.836;105.234;2024-03-22T07:37:51;98965.59;;;38.15;nan
82293;BME280;71892;14.836;105.234;2024-03-22T07:40:17;98961.09;;;38.31;nan
82293;BME280;71892;14.836;105.234;2024-03-22T07:42:44;98956.44;;;38.47;nan
82293;BME280;71892;14.836;105.234;2024-03-22T07:45:10;98953.81;;;38.54;nan
82293;BME280;71892;14.836;105.234;2024-03-22T07:47:37;98955.22;;;38.66;nan
82293;BME280;71892;14.836;105.234;2024-03-22T07:50:04;98957.13;;;38.57;nan
82293;BME280;71892;14.836;105.234;2024-03-22T07:54:57;98941.66;;;38.31;nan
82293;BME280;71892;14.836;105.234;2024-03-22T07:57:24;98941.50;;;38.24;nan
82293;BME280;71892;14.836;105.234;2024-03-22T07:59:50;98945.41;;;37.97;nan
82293;BME280;71892;14.836;105.234;2024-03-22T08:02:17;98946.16;;;37.99;nan
82293;BME280;71892;14.836;105.234;2024-03-22T08:04:43;98934.69;;;38.02;nan
82293;BME280;71892;14.836;105.234;2024-03-22T08:07:10;98939.81;;;37.73;nan
82293;BME280;71892;14.836;105.234;2024-03-22T08:09:36;98931.63;;;37.13;nan
82293;BME280;71892;14.836;105.234;2024-03-22T08:12:03;98931.41;;;36.55;nan
82293;BME280;71892;14.836;105.234;2024-03-22T08:14:29;98936.41;;;36.34;nan
82293;BME280;71892;14.836;105.234;2024-03-22T08:16:56;98936.00;;;36.64;nan
82293;BME280;71892;14.836;105.234;2024-03-22T08:19:22;98909.97;;;36.91;nan
82293;BME280;71892;14.836;105.234;2024-03-22T08:21:49;98922.94;;;36.82;nan
82293;BME280;71892;14.836;105.234;2024-03-22T08:24:16;98920.69;;;36.86;nan
82293;BME280;71892;14.836;105.234;2024-03-22T08:26:43;98911.34;;;37.13;nan
82293;BME280;71892;14.836;105.234;2024-03-22T08:29:13;98905.34;;;37.33;nan
82293;BME280;71892;14.836;105.234;2024-03-22T08:31:41;98911.22;;;37.30;nan
82293;BME280;71892;14.836;105.234;2024-03-22T08:36:34;98914.03;;;37.38;nan
82293;BME280;71892;14.836;105.234;2024-03-22T08:39:00;98911.09;;;37.40;nan
82293;BME280;71892;14.836;105.234;2024-03-22T08:41:27;98911.63;;;37.43;nan
82293;BME280;71892;14.836;105.234;2024-03-22T08:43:54;98901.00;;;36.63;nan
82293;BME280;71892;14.836;105.234;2024-03-22T08:46:20;98905.47;;;36.38;nan
82293;BME280;71892;14.836;105.234;2024-03-22T08:48:49;98902.06;;;36.44;nan
82293;BME280;71892;14.836;105.234;2024-03-22T08:51:15;98899.00;;;36.55;nan
82293;BME280;71892;14.836;105.234;2024-03-22T08:53:42;98903.94;;;36.62;nan
82293;BME280;71892;14.836;105.234;2024-03-22T08:56:08;98899.09;;;36.64;nan
82293;BME280;71892;14.836;105.234;2024-03-22T08:58:35;98899.19;;;36.54;nan
82293;BME280;71892;14.836;105.234;2024-03-22T09:01:01;98895.19;;;36.56;nan
82293;BME280;71892;14.836;105.234;2024-03-22T09:03:28;98911.28;;;36.53;nan
82293;BME280;71892;14.836;105.234;2024-03-22T09:05:56;98903.28;;;36.68;nan
82293;BME280;71892;14.836;105.234;2024-03-22T09:08:26;98901.88;;;36.64;nan
82293;BME280;71892;14.836;105.234;2024-03-22T09:10:55;98902.66;;;36.82;nan
82293;BME280;71892;14.836;105.234;2024-03-22T09:13:21;98899.63;;;36.67;nan
82293;BME280;71892;14.836;105.234;2024-03-22T09:15:48;98904.84;;;36.44;nan
82293;BME280;71892;14.836;105.234;2024-03-22T09:18:15;98899.09;;;36.46;nan
82293;BME280;71892;14.836;105.234;2024-03-22T09:20:42;98905.81;;;36.35;nan
82293;BME280;71892;14.836;105.234;2024-03-22T09:23:08;98903.03;;;36.35;nan
82293;BME280;71892;14.836;105.234;2024-03-22T09:25:34;98905.41;;;36.30;nan
82293;BME280;71892;14.836;105.234;2024-03-22T09:28:01;98904.47;;;36.22;nan
82293;BME280;71892;14.836;105.234;2024-03-22T09:30:27;98884.59;;;36.08;nan
82293;BME280;71892;14.836;105.234;2024-03-22T09:32:54;98910.06;;;36.12;nan
82293;BME280;71892;14.836;105.234;2024-03-22T09:35:21;98899.31;;;36.09;nan
82293;BME280;71892;14.836;105.234;2024-03-22T09:37:47;98908.91;;;35.97;nan
82293;BME280;71892;14.836;105.234;2024-03-22T09:40:14;98913.66;;;35.87;nan
82293;BME280;71892;14.836;105.234;2024-03-22T09:42:42;98914.03;;;35.74;nan
82293;BME280;71892;14.836;105.234;2024-03-22T09:45:10;98917.81;;;35.73;nan
82293;BME280;71892;14.836;105.234;2024-03-22T09:47:36;98904.72;;;35.75;nan
82293;BME280;71892;14.836;105.234;2024-03-22T09:50:07;98911.66;;;35.79;nan
82293;BME280;71892;14.836;105.234;2024-03-22T09:52:35;98917.81;;;35.73;nan
82293;BME280;71892;14.836;105.234;2024-03-22T09:55:05;98920.78;;;35.71;nan
82293;BME280;71892;14.836;105.234;2024-03-22T09:57:38;98915.56;;;35.59;nan
82293;BME280;71892;14.836;105.234;2024-03-22T10:00:07;98915.97;;;35.46;nan
82293;BME280;71892;14.836;105.234;2024-03-22T10:02:34;98909.53;;;35.28;nan
82293;BME280;71892;14.836;105.234;2024-03-22T10:05:01;98916.88;;;35.10;nan
82293;BME280;71892;14.836;105.234;2024-03-22T10:07:30;98899.63;;;34.98;nan
82293;BME280;71892;14.836;105.234;2024-03-22T10:12:26;98927.78;;;34.74;nan
82293;BME280;71892;14.836;105.234;2024-03-22T10:14:53;98926.63;;;34.67;nan
82293;BME280;71892;14.836;105.234;2024-03-22T10:17:20;98923.88;;;34.58;nan
82293;BME280;71892;14.836;105.234;2024-03-22T10:19:48;98925.75;;;34.57;nan
82293;BME280;71892;14.836;105.234;2024-03-22T10:22:17;98907.63;;;34.55;nan
82293;BME280;71892;14.836;105.234;2024-03-22T10:24:44;98911.25;;;34.55;nan
82293;BME280;71892;14.836;105.234;2024-03-22T10:27:11;98939.75;;;34.56;nan
82293;BME280;71892;14.836;105.234;2024-03-22T10:29:38;98938.13;;;34.53;nan
82293;BME280;71892;14.836;105.234;2024-03-22T10:32:04;98931.47;;;34.46;nan
82293;BME280;71892;14.836;105.234;2024-03-22T10:34:33;98943.97;;;34.40;nan
82293;BME280;71892;14.836;105.234;2024-03-22T10:37:01;98934.97;;;34.38;nan
82293;BME280;71892;14.836;105.234;2024-03-22T10:41:54;98943.41;;;34.08;nan
82293;BME280;71892;14.836;105.234;2024-03-22T10:44:21;98945.56;;;33.85;nan
82293;BME280;71892;14.836;105.234;2024-03-22T10:49:18;98950.16;;;33.56;nan
82293;BME280;71892;14.836;105.234;2024-03-22T10:51:58;98951.44;;;33.42;nan
82293;BME280;71892;14.836;105.234;2024-03-22T10:54:34;98962.00;;;33.37;nan
82293;BME280;71892;14.836;105.234;2024-03-22T10:57:01;98958.38;;;33.37;nan
82293;BME280;71892;14.836;105.234;2024-03-22T10:59:34;98965.66;;;33.38;nan
82293;BME280;71892;14.836;105.234;2024-03-22T11:02:04;98964.63;;;33.39;nan
82293;BME280;71892;14.836;105.234;2024-03-22T11:04:33;98967.03;;;33.23;nan
82293;BME280;71892;14.836;105.234;2024-03-22T11:07:00;98968.13;;;33.10;nan
82293;BME280;71892;14.836;105.234;2024-03-22T11:09:29;98955.47;;;32.98;nan
82293;BME280;71892;14.836;105.234;2024-03-22T11:11:56;98969.72;;;32.83;nan
82293;BME280;71892;14.836;105.234;2024-03-22T11:14:24;98985.34;;;32.72;nan
82293;BME280;71892;14.836;105.234;2024-03-22T11:16:50;98986.78;;;32.67;nan
82293;BME280;71892;14.836;105.234;2024-03-22T11:19:17;98936.78;;;32.51;nan
82293;BME280;71892;14.836;105.234;2024-03-22T11:21:46;98978.75;;;32.43;nan
82293;BME280;71892;14.836;105.234;2024-03-22T11:24:13;98983.31;;;32.33;nan
82293;BME280;71892;14.836;105.234;2024-03-22T11:26:39;98998.13;;;32.21;nan
82293;BME280;71892;14.836;105.234;2024-03-22T11:29:06;99006.91;;;32.15;nan
82293;BME280;71892;14.836;105.234;2024-03-22T11:31:34;99015.56;;;32.10;nan
82293;BME280;71892;14.836;105.234;2024-03-22T11:34:01;99015.19;;;32.04;nan
82293;BME280;71892;14.836;105.234;2024-03-22T11:36:29;99005.84;;;31.95;nan
82293;BME280;71892;14.836;105.234;2024-03-22T11:38:56;99012.88;;;31.88;nan
82293;BME280;71892;14.836;105.234;2024-03-22T11:41:29;99025.13;;;31.84;nan
82293;BME280;71892;14.836;105.234;2024-03-22T11:43:57;99026.53;;;31.78;nan
82293;BME280;71892;14.836;105.234;2024-03-22T11:46:24;99025.91;;;31.75;nan
82293;BME280;71892;14.836;105.234;2024-03-22T11:48:53;99036.91;;;31.75;nan
82293;BME280;71892;14.836;105.234;2024-03-22T11:51:20;99033.88;;;31.78;nan
82293;BME280;71892;14.836;105.234;2024-03-22T11:56:20;99033.28;;;31.74;nan
82293;BME280;71892;14.836;105.234;2024-03-22T11:58:47;99045.66;;;31.69;nan
82293;BME280;71892;14.836;105.234;2024-03-22T12:01:17;99052.66;;;31.62;nan
82293;BME280;71892;14.836;105.234;2024-03-22T12:03:47;99049.91;;;31.62;nan
82293;BME280;71892;14.836;105.234;2024-03-22T12:06:15;99062.50;;;31.53;nan
82293;BME280;71892;14.836;105.234;2024-03-22T12:08:42;99067.78;;;31.45;nan
82293;BME280;71892;14.836;105.234;2024-03-22T12:11:10;99068.00;;;31.42;nan
82293;BME280;71892;14.836;105.234;2024-03-22T12:13:37;99075.28;;;31.32;nan
82293;BME280;71892;14.836;105.234;2024-03-22T12:16:05;99071.88;;;31.28;nan
82293;BME280;71892;14.836;105.234;2024-03-22T12:18:32;99078.16;;;31.30;nan
82293;BME280;71892;14.836;105.234;2024-03-22T12:20:58;99079.75;;;31.33;nan
82293;BME280;71892;14.836;105.234;2024-03-22T12:23:25;99079.13;;;31.29;nan
82293;BME280;71892;14.836;105.234;2024-03-22T12:30:46;99083.66;;;30.84;nan
82293;BME280;71892;14.836;105.234;2024-03-22T12:33:13;99092.53;;;30.77;nan
82293;BME280;71892;14.836;105.234;2024-03-22T12:35:40;99084.25;;;30.65;nan
82293;BME280;71892;14.836;105.234;2024-03-22T12:38:07;99086.63;;;30.59;nan
82293;BME280;71892;14.836;105.234;2024-03-22T12:40:39;99089.84;;;30.53;nan
82293;BME280;71892;14.836;105.234;2024-03-22T12:43:07;99091.19;;;30.47;nan
82293;BME280;71892;14.836;105.234;2024-03-22T12:45:35;99099.97;;;30.40;nan
82293;BME280;71892;14.836;105.234;2024-03-22T12:48:01;99092.94;;;30.36;nan
82293;BME280;71892;14.836;105.234;2024-03-22T12:50:28;99092.69;;;30.28;nan
82293;BME280;71892;14.836;105.234;2024-03-22T12:52:55;99100.50;;;30.21;nan
82293;BME280;71892;14.836;105.234;2024-03-22T12:55:21;99099.34;;;30.12;nan
82293;BME280;71892;14.836;105.234;2024-03-22T12:57:48;99099.06;;;30.04;nan
82293;BME280;71892;14.836;105.234;2024-03-22T13:00:14;99102.16;;;30.00;nan
82293;BME280;71892;14.836;105.234;2024-03-22T13:02:47;99104.00;;;29.99;nan
82293;BME280;71892;14.836;105.234;2024-03-22T13:05:13;99115.06;;;29.98;nan
82293;BME280;71892;14.836;105.234;2024-03-22T13:07:41;99108.19;;;29.92;nan
82293;BME280;71892;14.836;105.234;2024-03-22T13:10:09;99114.78;;;29.90;nan
82293;BME280;71892;14.836;105.234;2024-03-22T13:12:36;99107.84;;;29.84;nan
82293;BME280;71892;14.836;105.234;2024-03-22T13:15:03;99111.47;;;29.85;nan
82293;BME280;71892;14.836;105.234;2024-03-22T13:17:30;99124.66;;;29.79;nan
82293;BME280;71892;14.836;105.234;2024-03-22T13:19:57;99114.47;;;29.69;nan
82293;BME280;71892;14.836;105.234;2024-03-22T13:22:24;99123.28;;;29.61;nan
82293;BME280;71892;14.836;105.234;2024-03-22T13:24:50;99124.50;;;29.57;nan
82293;BME280;71892;14.836;105.234;2024-03-22T13:27:17;99124.84;;;29.53;nan